createdAt,value
2018-01-11T00:00:12.496Z,97634.39
2018-01-11T00:02:40.028Z,97638.78
2018-01-11T00:05:07.571Z,97634.14
2018-01-11T00:07:35.097Z,97638.91
2018-01-11T00:10:02.641Z,97637.83
2018-01-11T00:12:30.167Z,97635.98
2018-01-11T00:14:57.696Z,97634.39
2018-01-11T00:17:25.197Z,97638.39
2018-01-11T00:19:52.720Z,97637.80
2018-01-11T00:22:20.236Z,97638.55
2018-01-11T00:24:47.736Z,97635.02
2018-01-11T00:27:15.270Z,97636.02
2018-01-11T00:29:42.806Z,97637.41
2018-01-11T00:32:10.334Z,97636.88
2018-01-11T00:34:37.849Z,97636.55
2018-01-11T00:37:05.362Z,97641.95
2018-01-11T00:39:32.881Z,97632.80
2018-01-11T00:42:00.398Z,97636.75
2018-01-11T00:44:27.957Z,97635.30
2018-01-11T00:46:55.463Z,97636.52
2018-01-11T00:49:22.998Z,97636.14
2018-01-11T00:51:50.545Z,97633.41
2018-01-11T00:54:18.051Z,97632.00
2018-01-11T00:56:45.605Z,97635.78
2018-01-11T00:59:13.142Z,97630.55
2018-01-11T01:01:40.686Z,97644.30
2018-01-11T01:04:08.197Z,97636.72
2018-01-11T01:06:35.971Z,97643.07
2018-01-11T01:09:03.525Z,97636.41
2018-01-11T01:11:31.042Z,97635.28
2018-01-11T01:13:58.570Z,97638.59
2018-01-11T01:16:26.115Z,97634.49
2018-01-11T01:18:53.776Z,97641.68
2018-01-11T01:21:21.290Z,97636.61
2018-01-11T01:23:48.837Z,97635.94
2018-01-11T01:26:16.336Z,97637.06
2018-01-11T01:28:43.867Z,97643.10
2018-01-11T01:31:11.430Z,97642.89
2018-01-11T01:33:38.963Z,97641.45
2018-01-11T01:36:06.472Z,97645.19
2018-01-11T01:38:34.146Z,97641.30
2018-01-11T01:41:01.662Z,97643.64
2018-01-11T01:43:29.196Z,97642.93
2018-01-11T01:45:56.717Z,97644.77
2018-01-11T01:48:36.092Z,97645.15
2018-01-11T01:51:03.722Z,97650.65
2018-01-11T01:53:31.270Z,97645.15
2018-01-11T01:55:58.781Z,97644.48
2018-01-11T01:58:26.357Z,97650.45
2018-01-11T02:00:53.878Z,97650.09
2018-01-11T02:03:21.435Z,97657.48
2018-01-11T02:05:48.940Z,97654.52
2018-01-11T02:08:16.452Z,97648.30
2018-01-11T02:10:43.951Z,97654.33
2018-01-11T02:13:11.466Z,97653.98
2018-01-11T02:15:39.006Z,97653.02
2018-01-11T02:18:06.522Z,97651.80
2018-01-11T02:20:34.037Z,97649.41
2018-01-11T02:23:01.555Z,97646.87
2018-01-11T02:25:29.140Z,97646.37
2018-01-11T02:27:56.666Z,97642.52
2018-01-11T02:30:24.187Z,97642.20
2018-01-11T02:32:51.712Z,97644.99
2018-01-11T02:35:19.382Z,97644.32
2018-01-11T02:37:46.886Z,97648.63
2018-01-11T02:40:14.406Z,97639.78
2018-01-11T02:42:41.931Z,97639.19
2018-01-11T02:45:09.456Z,97647.18
2018-01-11T02:47:37.005Z,97648.22
2018-01-11T02:50:04.550Z,97651.63
2018-01-11T02:52:32.065Z,97654.34
2018-01-11T02:54:59.672Z,97644.98
2018-01-11T02:57:27.224Z,97651.05
2018-01-11T02:59:54.751Z,97655.70
2018-01-11T03:02:22.292Z,97662.64
2018-01-11T03:04:49.860Z,97660.54
2018-01-11T03:07:17.402Z,97656.05
2018-01-11T03:09:45.006Z,97655.08
2018-01-11T03:12:12.550Z,97656.84
2018-01-11T03:14:40.081Z,97657.80
2018-01-11T03:17:07.611Z,97657.08
2018-01-11T03:19:35.140Z,97653.80
2018-01-11T03:22:02.657Z,97650.78
2018-01-11T03:24:30.175Z,97661.61
2018-01-11T03:26:57.822Z,97662.45
2018-01-11T03:29:25.335Z,97661.83
2018-01-11T03:31:52.841Z,97657.97
2018-01-11T03:34:20.357Z,97656.61
2018-01-11T03:36:47.861Z,97661.29
2018-01-11T03:39:15.366Z,97670.49
2018-01-11T03:41:42.945Z,97661.04
2018-01-11T03:44:10.480Z,97661.18
2018-01-11T03:46:38.017Z,97663.43
2018-01-11T03:49:05.602Z,97662.89
2018-01-11T03:51:33.155Z,97668.36
2018-01-11T03:54:00.696Z,97672.86
2018-01-11T03:56:28.243Z,97671.80
2018-01-11T03:58:55.790Z,97673.91
2018-01-11T04:01:23.391Z,97676.67
2018-01-11T04:03:50.922Z,97687.55
2018-01-11T04:06:18.440Z,97689.45
2018-01-11T04:08:46.002Z,97687.02
2018-01-11T04:11:13.556Z,97687.45
2018-01-11T04:13:41.073Z,97687.77
2018-01-11T04:16:08.612Z,97685.02
2018-01-11T04:18:36.135Z,97686.53
2018-01-11T04:21:03.671Z,97688.34
2018-01-11T04:23:31.202Z,97693.81
2018-01-11T04:25:58.721Z,97689.32
2018-01-11T04:28:26.260Z,97691.64
2018-01-11T04:30:53.792Z,97694.62
2018-01-11T04:33:21.347Z,97693.56
2018-01-11T04:35:48.871Z,97703.27
2018-01-11T04:38:16.373Z,97702.66
2018-01-11T04:40:43.893Z,97708.74
2018-01-11T04:43:11.447Z,97709.11
2018-01-11T04:45:38.963Z,97710.98
2018-01-11T04:48:06.485Z,97714.45
2018-01-11T04:50:33.998Z,97714.69
2018-01-11T04:53:01.502Z,97713.61
2018-01-11T04:55:29.105Z,97716.94
2018-01-11T04:57:56.626Z,97718.44
2018-01-11T05:00:24.167Z,97720.86
2018-01-11T05:02:51.761Z,97720.13
2018-01-11T05:05:19.253Z,97726.58
2018-01-11T05:07:46.776Z,97730.21
2018-01-11T05:10:14.288Z,97736.86
2018-01-11T05:12:41.827Z,97734.97
2018-01-11T05:15:09.506Z,97736.08
2018-01-11T05:17:37.021Z,97740.00
2018-01-11T05:20:04.537Z,97745.00
2018-01-11T05:22:32.093Z,97744.09
2018-01-11T05:24:59.743Z,97742.12
2018-01-11T05:27:27.457Z,97741.67
2018-01-11T05:29:54.977Z,97739.03
2018-01-11T05:32:22.491Z,97747.33
2018-01-11T05:34:50.023Z,97755.41
2018-01-11T05:37:17.639Z,97750.11
2018-01-11T05:39:45.132Z,97754.25
2018-01-11T05:42:12.653Z,97763.12
2018-01-11T05:44:40.199Z,97766.00
2018-01-11T05:47:07.718Z,97757.55
2018-01-11T05:49:35.221Z,97762.43
2018-01-11T05:52:02.817Z,97766.47
2018-01-11T05:54:30.331Z,97760.77
2018-01-11T05:56:57.867Z,97770.27
2018-01-11T05:59:25.394Z,97768.80
2018-01-11T06:01:52.909Z,97768.83
2018-01-11T06:04:20.456Z,97774.19
2018-01-11T06:06:47.976Z,97767.05
2018-01-11T06:09:15.491Z,97774.66
2018-01-11T06:11:43.016Z,97776.03
2018-01-11T06:14:10.566Z,97782.40
2018-01-11T06:16:38.087Z,97781.63
2018-01-11T06:19:05.738Z,97787.52
2018-01-11T06:21:33.257Z,97787.05
2018-01-11T06:24:00.792Z,97787.72
2018-01-11T06:26:28.323Z,97784.61
2018-01-11T06:28:55.852Z,97788.55
2018-01-11T06:31:23.373Z,97798.52
2018-01-11T06:33:50.922Z,97800.94
2018-01-11T06:36:19.102Z,97797.13
2018-01-11T06:38:46.628Z,97794.41
2018-01-11T06:41:14.167Z,97794.72
2018-01-11T06:43:41.726Z,97794.50
2018-01-11T06:46:09.242Z,97798.97
2018-01-11T06:48:36.761Z,97803.43
2018-01-11T06:51:04.317Z,97799.72
2018-01-11T06:53:31.846Z,97807.20
2018-01-11T06:55:59.378Z,97804.73
2018-01-11T06:58:26.971Z,97800.41
2018-01-11T07:00:54.493Z,97805.42
2018-01-11T07:03:22.057Z,97812.70
2018-01-11T07:05:49.598Z,97812.08
2018-01-11T07:08:17.109Z,97809.35
2018-01-11T07:10:44.642Z,97810.00
2018-01-11T07:13:12.181Z,97813.92
2018-01-11T07:15:39.733Z,97818.01
2018-01-11T07:18:07.292Z,97815.93
2018-01-11T07:20:34.838Z,97821.72
2018-01-11T07:23:02.371Z,97818.41
2018-01-11T07:25:29.917Z,97822.56
2018-01-11T07:27:57.447Z,97824.70
2018-01-11T07:30:25.004Z,97825.88
2018-01-11T07:32:52.548Z,97830.12
2018-01-11T07:35:20.077Z,97833.37
2018-01-11T07:37:47.586Z,97828.80
2018-01-11T07:40:15.112Z,97834.06
2018-01-11T07:42:42.673Z,97830.94
2018-01-11T07:45:10.217Z,97825.09
2018-01-11T07:47:37.881Z,97836.42
2018-01-11T07:50:05.445Z,97841.79
2018-01-11T07:52:32.976Z,97838.02
2018-01-11T07:55:00.487Z,97841.67
2018-01-11T07:57:28.045Z,97847.37
2018-01-11T07:59:55.569Z,97848.98
2018-01-11T08:02:23.100Z,97853.36
2018-01-11T08:04:50.645Z,97853.56
2018-01-11T08:07:18.172Z,97858.87
2018-01-11T08:09:45.712Z,97852.86
2018-01-11T08:12:13.256Z,97856.56
2018-01-11T08:14:40.802Z,97858.81
2018-01-11T08:17:08.366Z,97861.53
2018-01-11T08:19:35.944Z,97865.33
2018-01-11T08:22:03.464Z,97872.70
2018-01-11T08:24:30.993Z,97871.70
2018-01-11T08:26:58.508Z,97876.28
2018-01-11T08:29:26.018Z,97875.61
2018-01-11T08:31:53.543Z,97878.78
2018-01-11T08:34:21.083Z,97884.05
2018-01-11T08:36:48.611Z,97882.62
2018-01-11T08:39:16.137Z,97883.19
2018-01-11T08:41:43.650Z,97890.56
2018-01-11T08:44:11.162Z,97891.14
2018-01-11T08:46:38.677Z,97892.16
2018-01-11T08:49:06.234Z,97893.52
2018-01-11T08:51:33.763Z,97900.11
2018-01-11T08:54:01.293Z,97899.62
2018-01-11T08:56:28.812Z,97906.23
2018-01-11T08:58:56.346Z,97909.79
2018-01-11T09:01:23.882Z,97901.77
2018-01-11T09:03:51.393Z,97901.92
2018-01-11T09:06:18.894Z,97909.70
2018-01-11T09:08:46.419Z,97911.57
2018-01-11T09:11:13.956Z,97912.58
2018-01-11T09:13:41.492Z,97909.09
2018-01-11T09:16:09.199Z,97913.98
2018-01-11T09:18:36.852Z,97909.00
2018-01-11T09:21:04.492Z,97912.77
2018-01-11T09:23:32.004Z,97922.14
2018-01-11T09:25:59.653Z,97916.86
2018-01-11T09:28:27.192Z,97925.42
2018-01-11T09:30:54.728Z,97927.96
2018-01-11T09:33:22.291Z,97927.90
2018-01-11T09:35:49.808Z,97932.11
2018-01-11T09:38:17.327Z,97936.36
2018-01-11T09:40:44.837Z,97935.09
2018-01-11T09:43:12.366Z,97933.34
2018-01-11T09:45:40.007Z,97936.49
2018-01-11T09:48:07.512Z,97938.73
2018-01-11T09:50:35.052Z,97939.48
2018-01-11T09:53:02.568Z,97941.19
2018-01-11T09:55:30.091Z,97931.97
2018-01-11T09:57:57.647Z,97939.47
2018-01-11T10:00:25.167Z,97936.88
2018-01-11T10:02:52.734Z,97932.40
2018-01-11T10:05:20.280Z,97934.80
2018-01-11T10:07:47.823Z,97930.80
2018-01-11T10:10:15.344Z,97931.25
2018-01-11T10:12:42.843Z,97932.43
2018-01-11T10:15:10.362Z,97927.05
2018-01-11T10:17:37.871Z,97929.00
2018-01-11T10:20:05.407Z,97924.98
2018-01-11T10:22:32.977Z,97926.71
2018-01-11T10:25:00.497Z,97922.83
2018-01-11T10:27:28.104Z,97924.68
2018-01-11T10:29:55.612Z,97917.30
2018-01-11T10:32:23.309Z,97916.22
2018-01-11T10:34:50.837Z,97916.20
2018-01-11T10:37:18.344Z,97909.92
2018-01-11T10:39:45.874Z,97913.81
2018-01-11T10:42:13.409Z,97914.95
2018-01-11T10:44:40.948Z,97909.96
2018-01-11T10:47:08.487Z,97910.88
2018-01-11T10:49:36.009Z,97903.88
2018-01-11T10:52:03.534Z,97905.94
2018-01-11T10:54:31.062Z,97894.09
2018-01-11T10:56:58.573Z,97910.91
2018-01-11T10:59:26.091Z,97915.83
2018-01-11T11:01:59.298Z,97918.17
2018-01-11T11:04:26.813Z,97914.44
2018-01-11T11:06:54.327Z,97913.66
2018-01-11T11:09:21.878Z,97917.53
2018-01-11T11:11:49.393Z,97908.60
2018-01-11T11:14:16.937Z,97910.08
2018-01-11T11:16:44.516Z,97912.81
2018-01-11T11:19:12.049Z,97907.02
2018-01-11T11:21:39.569Z,97912.48
2018-01-11T11:24:07.077Z,97904.81
2018-01-11T11:26:34.586Z,97902.09
2018-01-11T11:29:02.184Z,97906.59
2018-01-11T11:31:29.707Z,97907.42
2018-01-11T11:33:57.262Z,97906.48
2018-01-11T11:36:24.809Z,97901.62
2018-01-11T11:38:52.333Z,97901.95
2018-01-11T11:41:19.852Z,97894.33
2018-01-11T11:43:47.374Z,97902.11
2018-01-11T11:46:15.084Z,97898.92
2018-01-11T11:48:42.662Z,97896.95
2018-01-11T11:51:10.192Z,97900.00
2018-01-11T11:53:37.725Z,97896.83
2018-01-11T11:56:05.271Z,97894.18
2018-01-11T11:58:32.813Z,97892.09
2018-01-11T12:01:00.362Z,97896.33
2018-01-11T12:03:27.937Z,97896.76
2018-01-11T12:05:55.450Z,97904.98
2018-01-11T12:08:22.974Z,97895.88
2018-01-11T12:10:50.488Z,97894.56
2018-01-11T12:13:18.062Z,97897.28
2018-01-11T12:15:45.607Z,97903.87
2018-01-11T12:18:13.307Z,97901.13
2018-01-11T12:20:40.854Z,97907.88
2018-01-11T12:23:08.408Z,97903.13
2018-01-11T12:25:35.953Z,97902.27
2018-01-11T12:28:03.523Z,97900.12
2018-01-11T12:30:31.095Z,97898.05
2018-01-11T12:32:58.646Z,97894.27
2018-01-11T12:35:26.389Z,97896.86
2018-01-11T12:37:53.999Z,97899.22
2018-01-11T12:40:21.529Z,97903.69
2018-01-11T12:42:49.152Z,97902.28
2018-01-11T12:45:16.647Z,97906.07
2018-01-11T12:47:44.218Z,97908.98
2018-01-11T12:50:11.746Z,97912.80
2018-01-11T12:52:39.278Z,97914.16
2018-01-11T12:55:06.833Z,97917.08
2018-01-11T12:57:34.364Z,97913.80
2018-01-11T13:00:02.059Z,97919.52
2018-01-11T13:02:29.597Z,97918.13
2018-01-11T13:04:57.165Z,97926.56
2018-01-11T13:07:24.701Z,97929.22
2018-01-11T13:09:52.264Z,97928.95
2018-01-11T13:12:19.788Z,97930.41
2018-01-11T13:14:47.314Z,97932.56
2018-01-11T13:17:14.847Z,97932.66
2018-01-11T13:19:42.372Z,97945.11
2018-01-11T13:22:09.900Z,97934.42
2018-01-11T13:24:37.463Z,97943.75
2018-01-11T13:27:04.984Z,97935.15
2018-01-11T13:29:32.617Z,97936.23
2018-01-11T13:32:00.168Z,97936.89
2018-01-11T13:34:27.706Z,97939.77
2018-01-11T13:36:55.297Z,97934.39
2018-01-11T13:39:22.836Z,97940.28
2018-01-11T13:41:50.382Z,97946.13
2018-01-11T13:44:17.927Z,97939.09
2018-01-11T13:46:45.471Z,97945.90
2018-01-11T13:49:13.093Z,97949.55
2018-01-11T13:51:40.622Z,97951.25
2018-01-11T13:54:08.147Z,97952.52
2018-01-11T13:56:35.828Z,97947.50
2018-01-11T13:59:03.348Z,97958.84
2018-01-11T14:01:30.857Z,97957.75
2018-01-11T14:03:58.378Z,97961.59
2018-01-11T14:06:25.919Z,97968.74
2018-01-11T14:08:53.897Z,97970.89
2018-01-11T14:11:21.840Z,97973.95
2018-01-11T14:13:49.371Z,97975.17
2018-01-11T14:16:16.965Z,97982.84
2018-01-11T14:18:44.618Z,97983.76
2018-01-11T14:21:12.228Z,97991.67
2018-01-11T14:23:39.993Z,97988.22
2018-01-11T14:26:07.690Z,97990.14
2018-01-11T14:28:35.212Z,98000.14
2018-01-11T14:31:02.745Z,97999.66
2018-01-11T14:33:30.312Z,97996.34
2018-01-11T14:35:57.842Z,98003.39
2018-01-11T14:38:25.382Z,98000.62
2018-01-11T14:40:52.903Z,98002.91
2018-01-11T14:43:20.414Z,98001.29
2018-01-11T14:45:48.079Z,98002.67
2018-01-11T14:48:15.627Z,98005.11
2018-01-11T14:50:43.262Z,98014.83
2018-01-11T14:53:10.812Z,98006.73
2018-01-11T14:55:38.337Z,98011.20
2018-01-11T14:58:05.893Z,98011.37
2018-01-11T15:00:33.428Z,98016.03
2018-01-11T15:03:00.963Z,98018.61
2018-01-11T15:05:28.658Z,98024.08
2018-01-11T15:07:56.208Z,98017.14
2018-01-11T15:10:23.754Z,98020.18
2018-01-11T15:12:51.280Z,98021.38
2018-01-11T15:15:18.816Z,98022.53
2018-01-11T15:17:46.349Z,98031.22
2018-01-11T15:20:13.879Z,98026.24
2018-01-11T15:22:41.419Z,98026.41
2018-01-11T15:25:08.933Z,98030.05
2018-01-11T15:27:36.469Z,98037.68
2018-01-11T15:30:03.979Z,98039.09
2018-01-11T15:32:31.508Z,98041.55
2018-01-11T15:34:59.039Z,98043.19
2018-01-11T15:37:26.566Z,98043.95
2018-01-11T15:39:54.182Z,98050.97
2018-01-11T15:42:21.710Z,98051.91
2018-01-11T15:44:49.240Z,98054.92
2018-01-11T15:47:16.799Z,98054.29
2018-01-11T15:49:44.412Z,98059.64
2018-01-11T15:52:12.026Z,98063.82
2018-01-11T15:54:39.530Z,98068.36
2018-01-11T15:57:07.046Z,98073.84
2018-01-11T15:59:34.580Z,98070.64
2018-01-11T16:02:02.128Z,98071.56
2018-01-11T16:04:30.258Z,98082.13
2018-01-11T16:06:57.745Z,98088.93
2018-01-11T16:09:25.251Z,98088.91
2018-01-11T16:11:52.779Z,98097.22
2018-01-11T16:14:20.356Z,98096.80
2018-01-11T16:16:47.925Z,98103.36
2018-01-11T16:19:15.445Z,98101.48
2018-01-11T16:21:42.961Z,98100.53
2018-01-11T16:24:10.495Z,98112.49
2018-01-11T16:26:38.023Z,98115.33
2018-01-11T16:29:05.569Z,98118.03
2018-01-11T16:31:33.124Z,98111.30
2018-01-11T16:34:00.663Z,98116.41
2018-01-11T16:36:28.228Z,98119.73
2018-01-11T16:38:55.782Z,98121.20
2018-01-11T16:41:23.545Z,98124.39
2018-01-11T16:43:51.089Z,98123.41
2018-01-11T16:46:18.619Z,98127.52
2018-01-11T16:48:46.160Z,98132.63
2018-01-11T16:51:13.680Z,98128.61
2018-01-11T16:53:41.265Z,98128.95
2018-01-11T16:56:08.820Z,98131.59
2018-01-11T16:58:36.384Z,98137.16
2018-01-11T17:01:03.969Z,98144.11
2018-01-11T17:03:31.506Z,98140.56
2018-01-11T17:05:59.038Z,98145.92
2018-01-11T17:08:26.589Z,98149.36
2018-01-11T17:10:54.123Z,98149.34
2018-01-11T17:13:21.676Z,98150.67
2018-01-11T17:15:49.238Z,98152.57
2018-01-11T17:18:16.782Z,98157.48
2018-01-11T17:20:44.310Z,98156.20
2018-01-11T17:23:11.848Z,98160.12
2018-01-11T17:25:39.399Z,98163.05
2018-01-11T17:28:06.954Z,98167.48
2018-01-11T17:30:34.481Z,98172.99
2018-01-11T17:33:02.223Z,98172.87
2018-01-11T17:35:29.884Z,98175.52
2018-01-11T17:37:57.415Z,98180.08
2018-01-11T17:40:24.973Z,98180.91
2018-01-11T17:42:52.557Z,98187.25
2018-01-11T17:45:20.068Z,98185.53
2018-01-11T17:47:47.601Z,98191.00
2018-01-11T17:50:15.135Z,98188.41
2018-01-11T17:52:42.688Z,98189.52
2018-01-11T17:55:10.220Z,98194.95
2018-01-11T17:57:37.778Z,98195.53
2018-01-11T18:00:05.325Z,98199.42
2018-01-11T18:02:32.851Z,98197.89
2018-01-11T18:05:00.383Z,98203.53
2018-01-11T18:07:27.941Z,98207.42
2018-01-11T18:09:55.628Z,98211.55
2018-01-11T18:12:23.268Z,98213.47
2018-01-11T18:14:50.809Z,98213.75
2018-01-11T18:17:18.355Z,98219.42
2018-01-11T18:19:45.889Z,98223.55
2018-01-11T18:42:55.611Z,98244.34
2018-01-11T18:45:23.279Z,98248.20
2018-01-11T18:47:54.310Z,98255.11
2018-01-11T18:50:35.039Z,98253.29
2018-01-11T18:53:02.777Z,98264.02
2018-01-11T18:55:30.464Z,98265.88
2018-01-11T19:01:27.027Z,98272.59
2018-01-11T19:03:54.708Z,98277.45
2018-01-11T19:06:22.395Z,98279.14
2018-01-11T19:08:50.315Z,98284.30
2018-01-11T19:11:17.981Z,98291.95
2018-01-11T19:16:59.010Z,98290.92
2018-01-11T19:19:26.644Z,98298.47
2018-01-11T19:21:54.302Z,98301.19
2018-01-11T19:24:22.027Z,98304.58
2018-01-11T19:26:49.705Z,98307.18
2018-01-11T19:29:17.480Z,98309.62
2018-01-11T19:31:45.134Z,98311.62
2018-01-11T19:34:21.564Z,98312.15
2018-01-11T19:36:49.431Z,98310.41
2018-01-11T19:39:17.066Z,98319.45
2018-01-11T19:41:44.845Z,98319.72
2018-01-11T19:44:12.539Z,98317.56
2018-01-11T19:46:40.251Z,98323.34
2018-01-11T19:49:08.100Z,98322.05
2018-01-11T19:51:35.780Z,98318.52
2018-01-11T19:54:03.466Z,98325.34
2018-01-11T19:56:31.049Z,98327.70
2018-01-11T19:58:58.978Z,98332.12
2018-01-11T20:01:26.746Z,98329.64
2018-01-11T20:03:54.399Z,98341.28
2018-01-11T20:06:22.059Z,98335.48
2018-01-11T20:08:49.730Z,98336.58
2018-01-11T20:11:17.424Z,98338.61
2018-01-11T20:13:45.141Z,98340.05
2018-01-11T20:16:12.899Z,98343.80
2018-01-11T20:18:40.579Z,98343.97
2018-01-11T20:21:08.314Z,98344.98
2018-01-11T20:23:36.034Z,98347.50
2018-01-11T20:26:03.681Z,98349.47
2018-01-11T20:28:31.288Z,98354.08
2018-01-11T20:30:58.958Z,98355.73
2018-01-11T20:33:26.720Z,98354.45
2018-01-11T20:35:54.700Z,98359.88
2018-01-11T20:38:22.338Z,98355.06
2018-01-11T20:40:50.221Z,98358.19
2018-01-11T20:43:18.029Z,98351.80
2018-01-11T20:45:45.680Z,98360.59
2018-01-11T20:48:13.388Z,98361.46
2018-01-11T20:50:41.325Z,98357.59
2018-01-11T20:53:08.999Z,98354.88
2018-01-11T20:55:36.719Z,98350.58
2018-01-11T20:58:04.465Z,98356.66
2018-01-11T21:00:32.255Z,98359.64
2018-01-11T21:03:00.042Z,98359.12
2018-01-11T21:05:27.690Z,98366.73
2018-01-11T21:07:55.400Z,98368.33
2018-01-11T21:10:23.280Z,98370.53
2018-01-11T21:12:50.926Z,98373.38
2018-01-11T21:15:18.731Z,98369.50
2018-01-11T21:17:46.390Z,98380.89
2018-01-11T21:20:14.149Z,98386.77
2018-01-11T21:22:41.864Z,98392.20
2018-01-11T21:25:09.566Z,98398.27
2018-01-11T21:27:37.210Z,98393.97
2018-01-11T21:30:04.860Z,98399.46
2018-01-11T21:32:32.531Z,98398.89
2018-01-11T21:35:00.175Z,98396.77
2018-01-11T21:37:27.855Z,98396.64
2018-01-11T21:39:55.633Z,98398.69
2018-01-11T21:42:23.430Z,98411.26
2018-01-11T21:44:51.094Z,98416.67
2018-01-11T21:47:18.869Z,98421.86
2018-01-11T21:49:46.608Z,98417.35
2018-01-11T21:52:15.215Z,98419.55
2018-01-11T21:54:42.950Z,98431.48
2018-01-11T21:57:10.648Z,98435.38
2018-01-11T21:59:38.289Z,98436.14
2018-01-11T22:02:05.945Z,98435.38
2018-01-11T22:04:33.603Z,98435.77
2018-01-11T22:07:01.261Z,98438.34
2018-01-11T22:09:29.018Z,98446.85
2018-01-11T22:11:56.678Z,98439.56
2018-01-11T22:14:24.585Z,98450.11
2018-01-11T22:16:52.394Z,98448.05
2018-01-11T22:19:20.137Z,98446.08
2018-01-11T22:21:47.805Z,98447.13
2018-01-11T22:24:15.490Z,98455.70
2018-01-11T22:26:43.148Z,98452.83
2018-01-11T22:29:10.754Z,98449.48
2018-01-11T22:31:38.396Z,98449.79
2018-01-11T22:34:06.063Z,98451.50
2018-01-11T22:36:33.750Z,98451.49
2018-01-11T22:39:01.444Z,98454.20
2018-01-11T22:41:29.095Z,98456.88
2018-01-11T22:43:56.745Z,98453.58
2018-01-11T22:46:24.429Z,98461.00
2018-01-11T22:48:52.064Z,98461.42
2018-01-11T22:51:19.701Z,98465.27
2018-01-11T22:53:47.680Z,98462.48
2018-01-11T22:56:15.324Z,98466.17
2018-01-11T22:58:43.139Z,98460.31
2018-01-11T23:01:10.819Z,98464.88
2018-01-11T23:03:38.484Z,98475.48
2018-01-11T23:06:06.145Z,98465.20
2018-01-11T23:08:33.814Z,98479.65
2018-01-11T23:11:01.575Z,98479.24
2018-01-11T23:13:29.201Z,98476.63
2018-01-11T23:15:56.875Z,98481.33
2018-01-11T23:18:24.519Z,98482.39
2018-01-11T23:20:52.155Z,98487.28
2018-01-11T23:23:19.868Z,98486.88
2018-01-11T23:25:47.529Z,98485.13
2018-01-11T23:28:15.205Z,98482.27
2018-01-11T23:30:43.073Z,98482.91
2018-01-11T23:33:10.698Z,98491.27
2018-01-11T23:35:38.320Z,98489.30
2018-01-11T23:38:06.210Z,98487.03
2018-01-11T23:40:33.858Z,98491.50
2018-01-11T23:43:01.504Z,98486.44
2018-01-11T23:45:29.275Z,98493.73
2018-01-11T23:47:56.950Z,98493.58
2018-01-11T23:50:24.703Z,98494.80
2018-01-11T23:52:52.438Z,98502.48
2018-01-11T23:55:23.428Z,98501.15
